Terminal Aerodrome Forecast
Issued by NWS Austin/San Antonio, TX

Home | Current Version | Previous Version | Text Only | Print | Product List | Glossary On
Versions: 1 2 3 4 5 6 7 8 9 10 11 12 13 14 15 16 17 18 19 20 21 22 23 24
000
FTUS44 KEWX 301136
TAFAUS
TAF
KAUS 301136Z 3012/3118 02006KT P6SM VCSH FEW020 BKN070
      TEMPO 3012/3015 5SM BR SCT008
     FM301500 02005KT P6SM SCT015 BKN035
     FM301700 07007KT P6SM BKN050 PROB30 3021/3101 5SM SHRA
     FM310900 VRB05KT P6SM SCT008 BKN015
     FM311500 01004KT P6SM SCT015 BKN035=

USA.gov is the U.S. government's official web portal to all federal, state and local government web resources and services.